Airfield :







YOU CAN JOIN US ON...

 
LOGIN :

Register | Disclaimer

   EN    FR    IT 

 









Legend :    VFR   Marginal VFR   IFR   Intensive IFR   Very Intensive IFR
Visi :
Ceiling :
>= 8 km
>= 3000ft
5 to 8 km
1000 to 3000 ft
1500m to 5 km
500 to 1000 ft
800 to 1500m
200 to 500 ft
< 800m
< 200 ft
Symbols :   Thunderstorms  Fog  Heavy snow  Heavy precipitations  Wind > 20 kt







- Airport Elevation : 193 ft
- IATA code : ZBF


CZBF - Bathurst

CURRENT METAR :
  • 192200Z AUTO 18003KT 9SM FEW080 OVC120 14/03 A3005 RMK SLP180

EXPIRED METARs :
  • 192100Z AUTO 14002KT 9SM OVC080 14/03 A3006 RMK SLP181
  • 192000Z AUTO 08003KT 020V120 9SM OVC075 14/03 A3006 RMK SLP183

TAF TAF CZBF
Valid from the 19 at 20:00 until the 20 at 03:00 UTC


191938Z 1920/2003 32005KT P6SM FEW070 BKN230
TEMPO 1920/1922 P6SM -SHRA BKN070
FM192200 VRB03KT P6SM -RA FEW010 OVC030
TEMPO 1922/2003 3SM -SHRA BR OVC010 RMK FCST BASED ON AUTO OBS. NXT FCST WILL BE ISSUED AT 200845Z
CZQM FIR / North America



MET'MAP, your aeronautical weather chart ! - Copyright ORBIFLY December 2007 - Disclaimer

ORBIFLY MET'MAP TEAM :

Programming & Development : Alexandra Zaïnal
Concept & Development : Baudouin d'Aumeries
Co-Development & Prog : Marc-Olivier Méhu
Technical & hardware support : Manuel Goepfert

Contact : metmap@orbifly.com




SOURCES & CREDITS :

   NOAA